sensor_id;sensor_type;location;lat;lon;timestamp;pressure;altitude;pressure_sealevel;temperature;humidity
26083;BME280;13848;49.018;12.078;2023-02-02T00:00:25;97726.97;;;4.75;69.83
26083;BME280;13848;49.018;12.078;2023-02-02T00:02:51;97709.13;;;4.90;70.69
26083;BME280;13848;49.018;12.078;2023-02-02T00:05:17;97688.31;;;5.37;69.36
26083;BME280;13848;49.018;12.078;2023-02-02T00:07:43;97685.06;;;5.05;70.15
26083;BME280;13848;49.018;12.078;2023-02-02T00:10:10;97690.81;;;4.87;69.27
26083;BME280;13848;49.018;12.078;2023-02-02T00:12:36;97708.13;;;4.76;70.37
26083;BME280;13848;49.018;12.078;2023-02-02T00:15:03;97691.53;;;4.81;69.19
26083;BME280;13848;49.018;12.078;2023-02-02T00:17:29;97715.56;;;4.81;69.28
26083;BME280;13848;49.018;12.078;2023-02-02T00:19:55;97715.56;;;4.81;68.54
26083;BME280;13848;49.018;12.078;2023-02-02T00:22:21;97728.56;;;4.84;69.01
26083;BME280;13848;49.018;12.078;2023-02-02T00:24:47;97719.34;;;4.87;68.58
26083;BME280;13848;49.018;12.078;2023-02-02T00:27:14;97719.34;;;4.87;69.04
26083;BME280;13848;49.018;12.078;2023-02-02T00:29:40;97717.53;;;4.87;69.38
26083;BME280;13848;49.018;12.078;2023-02-02T00:32:06;97695.56;;;4.92;69.26
26083;BME280;13848;49.018;12.078;2023-02-02T00:34:32;97720.19;;;4.87;69.37
26083;BME280;13848;49.018;12.078;2023-02-02T00:36:57;97720.53;;;4.84;70.11
26083;BME280;13848;49.018;12.078;2023-02-02T00:39:24;97717.88;;;4.84;69.53
26083;BME280;13848;49.018;12.078;2023-02-02T00:41:51;97721.56;;;4.83;69.34
26083;BME280;13848;49.018;12.078;2023-02-02T00:44:18;97724.22;;;4.83;69.58
26083;BME280;13848;49.018;12.078;2023-02-02T00:46:44;97714.00;;;4.87;69.91
26083;BME280;13848;49.018;12.078;2023-02-02T00:49:10;97727.00;;;4.90;69.56
26083;BME280;13848;49.018;12.078;2023-02-02T00:51:36;97732.53;;;4.88;69.20
26083;BME280;13848;49.018;12.078;2023-02-02T00:54:03;97719.81;;;4.90;69.47
26083;BME280;13848;49.018;12.078;2023-02-02T00:56:29;97727.34;;;4.87;70.02
26083;BME280;13848;49.018;12.078;2023-02-02T00:58:55;97739.53;;;4.89;69.57
26083;BME280;13848;49.018;12.078;2023-02-02T01:01:22;97742.19;;;4.89;69.41
26083;BME280;13848;49.018;12.078;2023-02-02T01:03:49;97746.03;;;4.87;70.60
26083;BME280;13848;49.018;12.078;2023-02-02T01:06:15;97741.44;;;4.80;71.31
26083;BME280;13848;49.018;12.078;2023-02-02T01:08:41;97744.56;;;4.69;72.44
26083;BME280;13848;49.018;12.078;2023-02-02T01:11:07;97743.75;;;4.69;72.88
26083;BME280;13848;49.018;12.078;2023-02-02T01:13:33;97743.75;;;4.69;73.08
26083;BME280;13848;49.018;12.078;2023-02-02T01:16:00;97747.63;;;4.66;73.16
26083;BME280;13848;49.018;12.078;2023-02-02T01:18:28;97736.38;;;4.71;73.71
26083;BME280;13848;49.018;12.078;2023-02-02T01:20:56;97750.75;;;4.70;73.95
26083;BME280;13848;49.018;12.078;2023-02-02T01:23:22;97758.38;;;4.73;74.16
26083;BME280;13848;49.018;12.078;2023-02-02T01:25:52;97749.91;;;4.69;73.93
26083;BME280;13848;49.018;12.078;2023-02-02T01:28:18;97756.34;;;4.60;74.62
26083;BME280;13848;49.018;12.078;2023-02-02T01:30:44;97753.16;;;4.65;74.80
26083;BME280;13848;49.018;12.078;2023-02-02T01:33:10;97757.09;;;4.69;74.72
26083;BME280;13848;49.018;12.078;2023-02-02T01:35:44;97766.56;;;4.57;75.73
26083;BME280;13848;49.018;12.078;2023-02-02T01:38:10;97769.53;;;4.62;75.71
26083;BME280;13848;49.018;12.078;2023-02-02T01:40:35;97764.38;;;4.75;76.22
26083;BME280;13848;49.018;12.078;2023-02-02T01:43:01;97763.84;;;4.65;76.46
26083;BME280;13848;49.018;12.078;2023-02-02T01:45:28;97760.13;;;4.66;76.25
26083;BME280;13848;49.018;12.078;2023-02-02T01:47:56;97761.88;;;4.59;76.59
26083;BME280;13848;49.018;12.078;2023-02-02T01:50:26;97778.78;;;4.36;77.96
26083;BME280;13848;49.018;12.078;2023-02-02T01:52:55;97775.72;;;4.39;78.90
26083;BME280;13848;49.018;12.078;2023-02-02T01:55:25;97774.31;;;4.28;79.03
26083;BME280;13848;49.018;12.078;2023-02-02T01:57:54;97778.81;;;4.28;78.68
26083;BME280;13848;49.018;12.078;2023-02-02T02:00:22;97779.19;;;4.25;79.61
26083;BME280;13848;49.018;12.078;2023-02-02T02:02:48;97777.75;;;4.37;78.96
26083;BME280;13848;49.018;12.078;2023-02-02T02:05:18;97781.44;;;4.36;79.64
26083;BME280;13848;49.018;12.078;2023-02-02T02:07:47;97782.09;;;4.38;78.93
26083;BME280;13848;49.018;12.078;2023-02-02T02:10:18;97787.47;;;4.53;78.54
26083;BME280;13848;49.018;12.078;2023-02-02T02:12:46;97803.72;;;4.43;79.25
26083;BME280;13848;49.018;12.078;2023-02-02T02:15:12;97818.00;;;4.36;80.20
26083;BME280;13848;49.018;12.078;2023-02-02T02:17:55;97785.59;;;4.39;78.81
26083;BME280;13848;49.018;12.078;2023-02-02T02:20:53;97797.94;;;4.17;78.79
26083;BME280;13848;49.018;12.078;2023-02-02T02:26:55;97833.03;;;3.83;78.86
26083;BME280;13848;49.018;12.078;2023-02-02T02:32:26;97832.69;;;2.99;80.59
26083;BME280;13848;49.018;12.078;2023-02-02T02:35:01;97852.81;;;3.02;80.81
26083;BME280;13848;49.018;12.078;2023-02-02T02:37:36;97846.66;;;2.93;80.25
26083;BME280;13848;49.018;12.078;2023-02-02T02:40:10;97854.84;;;2.75;80.66
26083;BME280;13848;49.018;12.078;2023-02-02T02:42:42;97876.97;;;2.59;80.98
26083;BME280;13848;49.018;12.078;2023-02-02T02:45:10;97874.84;;;2.38;81.27
26083;BME280;13848;49.018;12.078;2023-02-02T02:47:40;97868.84;;;2.53;80.66
26083;BME280;13848;49.018;12.078;2023-02-02T02:50:08;97878.81;;;2.43;81.33
26083;BME280;13848;49.018;12.078;2023-02-02T02:52:35;97884.63;;;2.46;80.50
26083;BME280;13848;49.018;12.078;2023-02-02T02:55:02;97879.00;;;2.57;80.68
26083;BME280;13848;49.018;12.078;2023-02-02T02:57:45;97870.31;;;2.72;80.60
26083;BME280;13848;49.018;12.078;2023-02-02T03:00:32;97864.31;;;2.78;80.89
26083;BME280;13848;49.018;12.078;2023-02-02T03:03:07;97872.16;;;2.63;80.09
26083;BME280;13848;49.018;12.078;2023-02-02T03:05:45;97864.53;;;2.68;80.05
26083;BME280;13848;49.018;12.078;2023-02-02T03:08:18;97863.16;;;2.80;80.09
26083;BME280;13848;49.018;12.078;2023-02-02T03:10:46;97867.50;;;2.73;80.00
26083;BME280;13848;49.018;12.078;2023-02-02T03:13:13;97875.31;;;2.66;80.14
26083;BME280;13848;49.018;12.078;2023-02-02T03:15:40;97877.81;;;2.76;80.33
26083;BME280;13848;49.018;12.078;2023-02-02T03:18:08;97880.28;;;2.78;80.21
26083;BME280;13848;49.018;12.078;2023-02-02T03:20:34;97883.16;;;2.84;80.33
26083;BME280;13848;49.018;12.078;2023-02-02T03:23:00;97882.47;;;2.82;80.04
26083;BME280;13848;49.018;12.078;2023-02-02T03:25:26;97891.13;;;2.76;80.24
26083;BME280;13848;49.018;12.078;2023-02-02T03:27:52;97893.47;;;2.63;80.05
26083;BME280;13848;49.018;12.078;2023-02-02T03:30:18;97900.78;;;2.61;80.66
26083;BME280;13848;49.018;12.078;2023-02-02T03:32:45;97899.47;;;2.73;80.76
26083;BME280;13848;49.018;12.078;2023-02-02T03:35:12;97899.09;;;2.60;80.69
26083;BME280;13848;49.018;12.078;2023-02-02T03:37:38;97898.13;;;2.61;80.80
26083;BME280;13848;49.018;12.078;2023-02-02T03:40:05;97889.97;;;2.71;80.07
26083;BME280;13848;49.018;12.078;2023-02-02T03:42:31;97894.28;;;2.80;79.48
26083;BME280;13848;49.018;12.078;2023-02-02T03:44:57;97901.13;;;2.74;79.48
26083;BME280;13848;49.018;12.078;2023-02-02T03:47:27;97909.91;;;2.66;79.56
26083;BME280;13848;49.018;12.078;2023-02-02T03:49:53;97911.44;;;2.61;79.66
26083;BME280;13848;49.018;12.078;2023-02-02T03:52:20;97919.72;;;2.66;79.59
26083;BME280;13848;49.018;12.078;2023-02-02T03:54:46;97918.75;;;2.67;79.29
26083;BME280;13848;49.018;12.078;2023-02-02T03:57:12;97917.06;;;2.66;79.50
26083;BME280;13848;49.018;12.078;2023-02-02T03:59:38;97919.09;;;2.56;79.67
26083;BME280;13848;49.018;12.078;2023-02-02T04:02:04;97934.03;;;2.65;79.07
26083;BME280;13848;49.018;12.078;2023-02-02T04:04:30;97932.38;;;2.48;79.69
26083;BME280;13848;49.018;12.078;2023-02-02T04:06:56;97935.38;;;2.53;80.03
26083;BME280;13848;49.018;12.078;2023-02-02T04:09:23;97927.72;;;2.50;79.43
26083;BME280;13848;49.018;12.078;2023-02-02T04:11:49;97934.69;;;2.43;80.02
26083;BME280;13848;49.018;12.078;2023-02-02T04:14:15;97928.69;;;2.49;80.09
26083;BME280;13848;49.018;12.078;2023-02-02T04:16:41;97927.72;;;2.50;79.53
26083;BME280;13848;49.018;12.078;2023-02-02T04:19:07;97923.91;;;2.52;79.51
26083;BME280;13848;49.018;12.078;2023-02-02T04:21:34;97935.69;;;2.42;79.69
26083;BME280;13848;49.018;12.078;2023-02-02T04:23:59;97930.72;;;2.47;79.91
26083;BME280;13848;49.018;12.078;2023-02-02T04:26:27;97940.19;;;2.49;80.05
26083;BME280;13848;49.018;12.078;2023-02-02T04:28:53;97940.53;;;2.46;80.20
26083;BME280;13848;49.018;12.078;2023-02-02T04:31:19;97934.69;;;2.43;79.66
26083;BME280;13848;49.018;12.078;2023-02-02T04:33:45;97941.34;;;2.47;79.72
26083;BME280;13848;49.018;12.078;2023-02-02T04:36:11;97936.38;;;2.52;79.69
26083;BME280;13848;49.018;12.078;2023-02-02T04:38:37;97935.03;;;2.48;79.86
26083;BME280;13848;49.018;12.078;2023-02-02T04:41:05;97934.03;;;2.49;79.87
26083;BME280;13848;49.018;12.078;2023-02-02T04:43:33;97925.38;;;2.47;79.94
26083;BME280;13848;49.018;12.078;2023-02-02T04:45:59;97939.16;;;2.42;80.40
26083;BME280;13848;49.018;12.078;2023-02-02T04:48:25;97943.53;;;2.51;80.26
26083;BME280;13848;49.018;12.078;2023-02-02T04:50:57;97930.53;;;2.40;80.66
26083;BME280;13848;49.018;12.078;2023-02-02T04:53:23;97935.03;;;2.39;80.56
26083;BME280;13848;49.018;12.078;2023-02-02T04:55:49;97935.19;;;2.46;80.53
26083;BME280;13848;49.018;12.078;2023-02-02T04:58:15;97928.69;;;2.49;80.63
26083;BME280;13848;49.018;12.078;2023-02-02T05:00:42;97936.03;;;2.47;80.97
26083;BME280;13848;49.018;12.078;2023-02-02T05:03:08;97936.69;;;2.40;80.84
26083;BME280;13848;49.018;12.078;2023-02-02T05:05:34;97938.88;;;2.45;80.45
26083;BME280;13848;49.018;12.078;2023-02-02T05:07:59;97946.34;;;2.50;80.15
26083;BME280;13848;49.018;12.078;2023-02-02T05:10:25;97951.84;;;2.56;80.30
26083;BME280;13848;49.018;12.078;2023-02-02T05:12:52;97962.31;;;2.50;80.63
26083;BME280;13848;49.018;12.078;2023-02-02T05:15:18;97961.94;;;2.36;80.92
26083;BME280;13848;49.018;12.078;2023-02-02T05:17:45;97972.94;;;2.33;80.98
26083;BME280;13848;49.018;12.078;2023-02-02T05:20:11;97967.13;;;2.46;80.48
26083;BME280;13848;49.018;12.078;2023-02-02T05:22:37;97965.31;;;2.55;80.23
26083;BME280;13848;49.018;12.078;2023-02-02T05:25:04;97960.31;;;2.52;80.44
26083;BME280;13848;49.018;12.078;2023-02-02T05:27:30;97970.28;;;2.42;80.69
26083;BME280;13848;49.018;12.078;2023-02-02T05:29:56;97978.09;;;2.43;80.67
26083;BME280;13848;49.018;12.078;2023-02-02T05:32:22;97981.44;;;2.45;80.72
26083;BME280;13848;49.018;12.078;2023-02-02T05:34:50;97974.59;;;2.43;80.72
26083;BME280;13848;49.018;12.078;2023-02-02T05:37:16;97969.97;;;2.45;80.94
26083;BME280;13848;49.018;12.078;2023-02-02T05:39:41;97981.09;;;2.48;80.50
26083;BME280;13848;49.018;12.078;2023-02-02T05:42:07;97988.75;;;2.51;80.31
26083;BME280;13848;49.018;12.078;2023-02-02T05:44:33;97987.75;;;2.52;80.33
26083;BME280;13848;49.018;12.078;2023-02-02T05:46:59;97979.28;;;2.57;79.88
26083;BME280;13848;49.018;12.078;2023-02-02T05:49:25;97992.56;;;2.49;80.11
26083;BME280;13848;49.018;12.078;2023-02-02T05:51:54;97993.41;;;2.49;80.18
26083;BME280;13848;49.018;12.078;2023-02-02T05:54:22;97995.91;;;2.51;80.35
26083;BME280;13848;49.018;12.078;2023-02-02T05:56:51;97999.91;;;2.55;80.21
26083;BME280;13848;49.018;12.078;2023-02-02T05:59:17;97999.25;;;2.53;79.91
26083;BME280;13848;49.018;12.078;2023-02-02T06:01:44;97994.56;;;2.47;80.54
26083;BME280;13848;49.018;12.078;2023-02-02T06:04:10;97984.28;;;2.44;80.37
26083;BME280;13848;49.018;12.078;2023-02-02T06:06:36;97994.88;;;2.35;80.35
26083;BME280;13848;49.018;12.078;2023-02-02T06:09:03;97999.72;;;2.40;80.82
26083;BME280;13848;49.018;12.078;2023-02-02T06:11:30;98007.88;;;2.38;80.74
26083;BME280;13848;49.018;12.078;2023-02-02T06:13:56;98001.19;;;2.43;80.98
26083;BME280;13848;49.018;12.078;2023-02-02T06:16:22;98001.19;;;2.34;80.99
26083;BME280;13848;49.018;12.078;2023-02-02T06:18:48;98001.19;;;2.34;81.04
26083;BME280;13848;49.018;12.078;2023-02-02T06:21:13;97992.88;;;2.37;80.93
26083;BME280;13848;49.018;12.078;2023-02-02T06:23:39;97991.84;;;2.22;81.23
26083;BME280;13848;49.018;12.078;2023-02-02T06:26:07;97992.16;;;2.11;81.49
26083;BME280;13848;49.018;12.078;2023-02-02T06:28:33;97984.81;;;2.13;81.76
26083;BME280;13848;49.018;12.078;2023-02-02T06:31:03;97989.47;;;2.11;81.90
26083;BME280;13848;49.018;12.078;2023-02-02T06:33:29;97991.50;;;2.17;81.73
26083;BME280;13848;49.018;12.078;2023-02-02T06:35:57;97987.19;;;2.24;81.58
26083;BME280;13848;49.018;12.078;2023-02-02T06:38:23;97990.84;;;2.23;81.66
26083;BME280;13848;49.018;12.078;2023-02-02T06:40:49;97996.19;;;2.31;81.56
26083;BME280;13848;49.018;12.078;2023-02-02T06:43:16;98000.19;;;2.35;81.40
26083;BME280;13848;49.018;12.078;2023-02-02T06:45:42;98005.56;;;2.44;81.80
26083;BME280;13848;49.018;12.078;2023-02-02T06:48:08;98008.00;;;2.29;81.86
26083;BME280;13848;49.018;12.078;2023-02-02T06:50:34;98010.00;;;2.27;81.79
26083;BME280;13848;49.018;12.078;2023-02-02T06:53:00;98014.25;;;2.20;81.66
26083;BME280;13848;49.018;12.078;2023-02-02T06:55:26;98023.06;;;2.12;81.84
26083;BME280;13848;49.018;12.078;2023-02-02T06:57:55;98020.41;;;2.20;81.96
26083;BME280;13848;49.018;12.078;2023-02-02T07:00:23;98018.44;;;2.22;81.87
26083;BME280;13848;49.018;12.078;2023-02-02T07:02:49;98016.16;;;2.27;82.47
26083;BME280;13848;49.018;12.078;2023-02-02T07:05:15;98009.16;;;2.26;82.13
26083;BME280;13848;49.018;12.078;2023-02-02T07:07:41;98016.44;;;2.24;81.76
26083;BME280;13848;49.018;12.078;2023-02-02T07:10:08;98010.81;;;2.27;81.50
26083;BME280;13848;49.018;12.078;2023-02-02T07:12:33;98017.69;;;2.38;81.71
26083;BME280;13848;49.018;12.078;2023-02-02T07:14:59;98012.66;;;2.35;81.43
26083;BME280;13848;49.018;12.078;2023-02-02T07:17:27;98018.50;;;2.38;81.25
26083;BME280;13848;49.018;12.078;2023-02-02T07:19:53;98019.47;;;2.37;81.44
26083;BME280;13848;49.018;12.078;2023-02-02T07:22:18;98027.47;;;2.37;81.17
26083;BME280;13848;49.018;12.078;2023-02-02T07:24:44;98032.25;;;2.26;81.57
26083;BME280;13848;49.018;12.078;2023-02-02T07:27:10;98036.44;;;2.28;81.85
26083;BME280;13848;49.018;12.078;2023-02-02T07:29:36;98027.56;;;2.20;81.53
26083;BME280;13848;49.018;12.078;2023-02-02T07:32:02;98028.09;;;2.31;81.72
26083;BME280;13848;49.018;12.078;2023-02-02T07:34:30;98023.13;;;2.28;81.94
26083;BME280;13848;49.018;12.078;2023-02-02T07:36:56;98015.25;;;2.19;81.90
26083;BME280;13848;49.018;12.078;2023-02-02T07:39:22;98017.19;;;2.00;82.75
26083;BME280;13848;49.018;12.078;2023-02-02T07:41:48;98020.50;;;1.94;83.81
26083;BME280;13848;49.018;12.078;2023-02-02T07:44:14;98022.06;;;2.13;82.88
26083;BME280;13848;49.018;12.078;2023-02-02T07:46:41;98028.09;;;2.23;82.76
26083;BME280;13848;49.018;12.078;2023-02-02T07:49:08;98032.41;;;2.24;82.71
26083;BME280;13848;49.018;12.078;2023-02-02T07:51:36;98031.91;;;2.21;83.18
26083;BME280;13848;49.018;12.078;2023-02-02T07:54:03;98033.09;;;2.26;83.04
26083;BME280;13848;49.018;12.078;2023-02-02T07:56:29;98038.06;;;2.21;83.08
26083;BME280;13848;49.018;12.078;2023-02-02T07:58:55;98036.91;;;2.24;83.09
26083;BME280;13848;49.018;12.078;2023-02-02T08:01:22;98045.41;;;2.27;82.83
26083;BME280;13848;49.018;12.078;2023-02-02T08:03:49;98040.03;;;2.19;83.01
26083;BME280;13848;49.018;12.078;2023-02-02T08:06:18;98030.72;;;2.15;83.41
26083;BME280;13848;49.018;12.078;2023-02-02T08:08:46;98040.84;;;2.11;84.23
26083;BME280;13848;49.018;12.078;2023-02-02T08:11:13;98035.06;;;2.16;83.90
26083;BME280;13848;49.018;12.078;2023-02-02T08:13:41;98032.22;;;2.18;83.70
26083;BME280;13848;49.018;12.078;2023-02-02T08:16:08;98041.09;;;2.26;83.18
26083;BME280;13848;49.018;12.078;2023-02-02T08:18:34;98045.78;;;2.40;83.16
26083;BME280;13848;49.018;12.078;2023-02-02T08:21:02;98047.09;;;2.36;83.08
26083;BME280;13848;49.018;12.078;2023-02-02T08:23:28;98047.91;;;2.29;83.48
26083;BME280;13848;49.018;12.078;2023-02-02T08:26:04;98050.53;;;2.21;83.95
26083;BME280;13848;49.018;12.078;2023-02-02T08:28:30;98046.16;;;2.11;84.31
26083;BME280;13848;49.018;12.078;2023-02-02T08:31:02;98051.38;;;2.29;83.63
26083;BME280;13848;49.018;12.078;2023-02-02T08:33:28;98059.72;;;2.34;83.41
26083;BME280;13848;49.018;12.078;2023-02-02T08:35:54;98062.84;;;2.80;87.80
26083;BME280;13848;49.018;12.078;2023-02-02T08:38:20;98058.88;;;2.84;83.92
26083;BME280;13848;49.018;12.078;2023-02-02T08:40:47;98058.31;;;2.64;84.17
26083;BME280;13848;49.018;12.078;2023-02-02T08:43:15;98060.94;;;2.48;83.71
26083;BME280;13848;49.018;12.078;2023-02-02T08:45:41;98058.38;;;2.30;84.05
26083;BME280;13848;49.018;12.078;2023-02-02T08:48:07;98064.03;;;2.27;84.20
26083;BME280;13848;49.018;12.078;2023-02-02T08:50:33;98065.56;;;2.38;84.39
26083;BME280;13848;49.018;12.078;2023-02-02T08:52:59;98061.66;;;2.16;84.29
26083;BME280;13848;49.018;12.078;2023-02-02T08:55:24;98062.38;;;2.26;84.46
26083;BME280;13848;49.018;12.078;2023-02-02T08:57:50;98070.72;;;2.39;83.98
26083;BME280;13848;49.018;12.078;2023-02-02T09:00:19;98061.38;;;2.35;84.00
26083;BME280;13848;49.018;12.078;2023-02-02T09:02:49;98072.75;;;2.46;83.88
26083;BME280;13848;49.018;12.078;2023-02-02T09:05:15;98072.03;;;2.35;84.02
26083;BME280;13848;49.018;12.078;2023-02-02T09:07:41;98068.06;;;2.39;83.85
26083;BME280;13848;49.018;12.078;2023-02-02T09:10:08;98071.09;;;2.45;84.06
26083;BME280;13848;49.018;12.078;2023-02-02T09:12:34;98074.97;;;2.24;84.41
26083;BME280;13848;49.018;12.078;2023-02-02T09:15:00;98075.69;;;2.34;84.50
26083;BME280;13848;49.018;12.078;2023-02-02T09:17:27;98076.81;;;2.32;84.44
26083;BME280;13848;49.018;12.078;2023-02-02T09:19:53;98078.00;;;2.37;84.48
26083;BME280;13848;49.018;12.078;2023-02-02T09:22:19;98075.03;;;2.32;84.34
26083;BME280;13848;49.018;12.078;2023-02-02T09:24:45;98073.50;;;2.30;84.36
26083;BME280;13848;49.018;12.078;2023-02-02T09:27:11;98069.53;;;2.34;84.83
26083;BME280;13848;49.018;12.078;2023-02-02T09:29:38;98084.06;;;2.48;83.84
26083;BME280;13848;49.018;12.078;2023-02-02T09:32:04;98087.72;;;2.55;83.73
26083;BME280;13848;49.018;12.078;2023-02-02T09:34:31;98085.09;;;2.63;83.99
26083;BME280;13848;49.018;12.078;2023-02-02T09:36:58;98084.47;;;2.69;83.96
26083;BME280;13848;49.018;12.078;2023-02-02T09:39:24;98083.16;;;2.73;83.51
26083;BME280;13848;49.018;12.078;2023-02-02T09:42:02;98093.94;;;2.72;83.59
26083;BME280;13848;49.018;12.078;2023-02-02T09:44:44;98080.81;;;2.70;83.22
26083;BME280;13848;49.018;12.078;2023-02-02T09:47:20;98094.97;;;2.79;82.98
26083;BME280;13848;49.018;12.078;2023-02-02T09:49:55;98090.78;;;2.76;83.19
26083;BME280;13848;49.018;12.078;2023-02-02T09:52:26;98102.47;;;2.83;83.35
26083;BME280;13848;49.018;12.078;2023-02-02T09:54:57;98093.44;;;2.68;83.14
26083;BME280;13848;49.018;12.078;2023-02-02T09:57:29;98104.88;;;2.52;83.99
26083;BME280;13848;49.018;12.078;2023-02-02T09:59:56;98096.91;;;2.60;83.54
26083;BME280;13848;49.018;12.078;2023-02-02T10:02:25;98102.38;;;2.59;83.44
26083;BME280;13848;49.018;12.078;2023-02-02T10:05:00;98102.56;;;2.57;83.37
26083;BME280;13848;49.018;12.078;2023-02-02T10:07:32;98098.00;;;2.42;83.62
26083;BME280;13848;49.018;12.078;2023-02-02T10:10:02;98101.38;;;2.52;83.59
26083;BME280;13848;49.018;12.078;2023-02-02T10:12:33;98103.25;;;2.25;84.33
26083;BME280;13848;49.018;12.078;2023-02-02T10:15:10;98101.34;;;2.44;84.23
26083;BME280;13848;49.018;12.078;2023-02-02T10:17:43;98101.53;;;2.50;83.67
26083;BME280;13848;49.018;12.078;2023-02-02T10:20:23;98101.34;;;2.44;83.89
26083;BME280;13848;49.018;12.078;2023-02-02T10:22:55;98099.72;;;2.51;83.96
26083;BME280;13848;49.018;12.078;2023-02-02T10:25:26;98094.75;;;2.56;83.70
26083;BME280;13848;49.018;12.078;2023-02-02T10:27:56;98097.41;;;2.64;83.29
26083;BME280;13848;49.018;12.078;2023-02-02T10:30:34;98096.78;;;2.70;82.84
26083;BME280;13848;49.018;12.078;2023-02-02T10:33:04;98094.28;;;2.69;82.84
26083;BME280;13848;49.018;12.078;2023-02-02T10:35:38;98089.97;;;2.76;82.54
26083;BME280;13848;49.018;12.078;2023-02-02T10:38:13;98091.47;;;2.78;82.79
26083;BME280;13848;49.018;12.078;2023-02-02T10:40:49;98091.47;;;2.78;82.58
26083;BME280;13848;49.018;12.078;2023-02-02T10:43:38;98092.81;;;2.74;82.89
26083;BME280;13848;49.018;12.078;2023-02-02T10:46:12;98096.50;;;2.98;83.70
26083;BME280;13848;49.018;12.078;2023-02-02T10:48:40;98091.31;;;2.80;82.89
26083;BME280;13848;49.018;12.078;2023-02-02T10:51:17;98092.16;;;2.80;82.45
26083;BME280;13848;49.018;12.078;2023-02-02T10:53:49;98090.16;;;2.82;82.32
26083;BME280;13848;49.018;12.078;2023-02-02T10:56:17;98088.19;;;2.84;82.84
26083;BME280;13848;49.018;12.078;2023-02-02T10:58:49;98089.50;;;2.88;82.12
26083;BME280;13848;49.018;12.078;2023-02-02T11:01:17;98095.16;;;2.85;82.74
26083;BME280;13848;49.018;12.078;2023-02-02T11:03:43;98091.81;;;2.83;82.50
26083;BME280;13848;49.018;12.078;2023-02-02T11:06:12;98082.81;;;2.76;82.70
26083;BME280;13848;49.018;12.078;2023-02-02T11:08:40;98078.78;;;2.72;82.67
26083;BME280;13848;49.018;12.078;2023-02-02T11:11:11;98081.13;;;2.67;82.71
26083;BME280;13848;49.018;12.078;2023-02-02T11:13:41;98082.09;;;2.66;82.83
26083;BME280;13848;49.018;12.078;2023-02-02T11:16:24;98085.81;;;2.73;83.16
26083;BME280;13848;49.018;12.078;2023-02-02T11:18:50;98078.16;;;2.78;82.17
26083;BME280;13848;49.018;12.078;2023-02-02T11:21:23;98072.81;;;2.78;82.55
26083;BME280;13848;49.018;12.078;2023-02-02T11:23:52;98083.47;;;2.78;82.32
26083;BME280;13848;49.018;12.078;2023-02-02T11:26:18;98074.16;;;2.82;82.28
26083;BME280;13848;49.018;12.078;2023-02-02T11:28:46;98079.84;;;2.79;82.41
26083;BME280;13848;49.018;12.078;2023-02-02T11:31:31;98076.81;;;2.74;82.71
26083;BME280;13848;49.018;12.078;2023-02-02T11:34:23;98079.50;;;2.74;83.27
26083;BME280;13848;49.018;12.078;2023-02-02T11:37:04;98077.63;;;2.66;82.85
26083;BME280;13848;49.018;12.078;2023-02-02T11:39:35;98081.13;;;2.67;83.02
26083;BME280;13848;49.018;12.078;2023-02-02T11:42:03;98080.78;;;2.62;82.89
26083;BME280;13848;49.018;12.078;2023-02-02T11:44:31;98080.66;;;2.80;82.71
26083;BME280;13848;49.018;12.078;2023-02-02T11:46:58;98068.66;;;2.76;82.96
26083;BME280;13848;49.018;12.078;2023-02-02T11:49:25;98066.13;;;2.66;83.07
26083;BME280;13848;49.018;12.078;2023-02-02T11:51:57;98067.47;;;2.62;83.24
26083;BME280;13848;49.018;12.078;2023-02-02T11:54:27;98072.16;;;2.68;83.08
26083;BME280;13848;49.018;12.078;2023-02-02T11:56:55;98068.78;;;2.66;82.45
26083;BME280;13848;49.018;12.078;2023-02-02T11:59:34;98076.13;;;2.64;83.09
26083;BME280;13848;49.018;12.078;2023-02-02T12:02:26;98065.47;;;2.64;82.65
26083;BME280;13848;49.018;12.078;2023-02-02T12:04:53;98064.69;;;2.80;83.84
26083;BME280;13848;49.018;12.078;2023-02-02T12:07:26;98068.88;;;3.07;83.39
26083;BME280;13848;49.018;12.078;2023-02-02T12:09:58;98062.06;;;3.04;82.38
26083;BME280;13848;49.018;12.078;2023-02-02T12:12:34;98064.69;;;2.88;82.33
26083;BME280;13848;49.018;12.078;2023-02-02T12:15:13;98052.88;;;2.82;82.27
26083;BME280;13848;49.018;12.078;2023-02-02T12:17:45;98056.22;;;2.84;82.44
26083;BME280;13848;49.018;12.078;2023-02-02T12:20:25;98056.22;;;2.84;82.58
26083;BME280;13848;49.018;12.078;2023-02-02T12:23:09;98064.03;;;2.86;82.66
26083;BME280;13848;49.018;12.078;2023-02-02T12:26:04;98056.84;;;2.78;83.26
26083;BME280;13848;49.018;12.078;2023-02-02T12:28:52;98066.00;;;2.84;82.71
26083;BME280;13848;49.018;12.078;2023-02-02T12:31:28;98057.88;;;2.85;82.45
26083;BME280;13848;49.018;12.078;2023-02-02T12:34:08;98058.53;;;2.79;82.93
26083;BME280;13848;49.018;12.078;2023-02-02T12:36:42;98058.53;;;2.79;82.65
26083;BME280;13848;49.018;12.078;2023-02-02T12:39:20;98066.53;;;2.79;82.98
26083;BME280;13848;49.018;12.078;2023-02-02T12:42:16;98059.38;;;2.88;83.11
26083;BME280;13848;49.018;12.078;2023-02-02T12:44:55;98061.84;;;2.81;82.69
26083;BME280;13848;49.018;12.078;2023-02-02T12:47:26;98065.19;;;2.83;82.70
26083;BME280;13848;49.018;12.078;2023-02-02T12:50:15;98066.00;;;2.84;82.78
26083;BME280;13848;49.018;12.078;2023-02-02T12:52:58;98066.66;;;2.78;83.10
26083;BME280;13848;49.018;12.078;2023-02-02T12:55:34;98064.69;;;2.80;83.33
26083;BME280;13848;49.018;12.078;2023-02-02T12:58:15;98063.16;;;2.77;83.08
26083;BME280;13848;49.018;12.078;2023-02-02T13:01:06;98063.69;;;2.89;83.28
26083;BME280;13848;49.018;12.078;2023-02-02T13:03:45;98073.69;;;2.87;83.08
26083;BME280;13848;49.018;12.078;2023-02-02T13:06:33;98071.19;;;2.93;82.97
26083;BME280;13848;49.018;12.078;2023-02-02T13:09:07;98072.50;;;2.81;83.11
26083;BME280;13848;49.018;12.078;2023-02-02T13:11:38;98076.47;;;2.77;83.55
26083;BME280;13848;49.018;12.078;2023-02-02T13:14:11;98077.34;;;2.94;84.87
26083;BME280;13848;49.018;12.078;2023-02-02T13:16:41;98070.41;;;3.26;85.30